sensor_id;sensor_type;location;lat;lon;timestamp;P1;durP1;ratioP1;P2;durP2;ratioP2
62724;SDS011;49026;52.600;4.694;2024-02-21T00:02:19;38.97;;;5.03;;
62724;SDS011;49026;52.600;4.694;2024-02-21T00:04:44;31.42;;;4.55;;
62724;SDS011;49026;52.600;4.694;2024-02-21T00:07:12;35.10;;;5.50;;
62724;SDS011;49026;52.600;4.694;2024-02-21T00:09:37;31.70;;;4.50;;
62724;SDS011;49026;52.600;4.694;2024-02-21T00:12:02;29.75;;;3.53;;
62724;SDS011;49026;52.600;4.694;2024-02-21T00:14:28;39.35;;;5.60;;
62724;SDS011;49026;52.600;4.694;2024-02-21T00:16:53;27.55;;;4.55;;
62724;SDS011;49026;52.600;4.694;2024-02-21T00:19:20;28.05;;;4.45;;
62724;SDS011;49026;52.600;4.694;2024-02-21T00:21:46;34.13;;;5.03;;
62724;SDS011;49026;52.600;4.694;2024-02-21T00:24:11;24.13;;;4.15;;
62724;SDS011;49026;52.600;4.694;2024-02-21T00:26:36;37.40;;;4.35;;
62724;SDS011;49026;52.600;4.694;2024-02-21T00:29:01;32.30;;;5.10;;
62724;SDS011;49026;52.600;4.694;2024-02-21T00:31:30;37.13;;;5.38;;
62724;SDS011;49026;52.600;4.694;2024-02-21T00:33:55;27.20;;;4.35;;
62724;SDS011;49026;52.600;4.694;2024-02-21T00:36:21;35.13;;;4.25;;
62724;SDS011;49026;52.600;4.694;2024-02-21T00:38:46;28.70;;;4.82;;
62724;SDS011;49026;52.600;4.694;2024-02-21T00:41:11;23.73;;;4.07;;
62724;SDS011;49026;52.600;4.694;2024-02-21T00:43:36;46.72;;;5.82;;
62724;SDS011;49026;52.600;4.694;2024-02-21T00:46:02;21.17;;;3.30;;
62724;SDS011;49026;52.600;4.694;2024-02-21T00:48:29;39.15;;;4.10;;
62724;SDS011;49026;52.600;4.694;2024-02-21T00:50:55;42.65;;;5.97;;
62724;SDS011;49026;52.600;4.694;2024-02-21T00:53:20;27.08;;;5.03;;
62724;SDS011;49026;52.600;4.694;2024-02-21T00:55:45;24.13;;;4.00;;
62724;SDS011;49026;52.600;4.694;2024-02-21T00:58:10;30.90;;;4.65;;
62724;SDS011;49026;52.600;4.694;2024-02-21T01:00:36;27.98;;;4.15;;
62724;SDS011;49026;52.600;4.694;2024-02-21T01:03:03;26.42;;;3.67;;
62724;SDS011;49026;52.600;4.694;2024-02-21T01:05:29;37.65;;;4.55;;
62724;SDS011;49026;52.600;4.694;2024-02-21T01:07:56;34.42;;;4.63;;
62724;SDS011;49026;52.600;4.694;2024-02-21T01:10:21;32.83;;;4.43;;
62724;SDS011;49026;52.600;4.694;2024-02-21T01:12:49;32.88;;;5.05;;
62724;SDS011;49026;52.600;4.694;2024-02-21T01:15:16;33.85;;;4.15;;
62724;SDS011;49026;52.600;4.694;2024-02-21T01:17:42;28.27;;;4.60;;
62724;SDS011;49026;52.600;4.694;2024-02-21T01:20:09;30.85;;;4.10;;
62724;SDS011;49026;52.600;4.694;2024-02-21T01:22:35;22.30;;;4.05;;
62724;SDS011;49026;52.600;4.694;2024-02-21T01:25:00;21.10;;;4.32;;
62724;SDS011;49026;52.600;4.694;2024-02-21T01:27:25;29.83;;;4.72;;
62724;SDS011;49026;52.600;4.694;2024-02-21T01:29:51;25.13;;;4.53;;
62724;SDS011;49026;52.600;4.694;2024-02-21T01:32:16;35.63;;;4.43;;
62724;SDS011;49026;52.600;4.694;2024-02-21T01:34:41;30.00;;;4.47;;
62724;SDS011;49026;52.600;4.694;2024-02-21T01:37:09;33.00;;;4.85;;
62724;SDS011;49026;52.600;4.694;2024-02-21T01:39:34;30.02;;;3.65;;
62724;SDS011;49026;52.600;4.694;2024-02-21T01:42:00;23.70;;;4.03;;
62724;SDS011;49026;52.600;4.694;2024-02-21T01:44:28;22.48;;;4.32;;
62724;SDS011;49026;52.600;4.694;2024-02-21T01:46:53;26.80;;;4.40;;
62724;SDS011;49026;52.600;4.694;2024-02-21T01:49:21;29.17;;;4.40;;
62724;SDS011;49026;52.600;4.694;2024-02-21T01:51:47;26.10;;;5.10;;
62724;SDS011;49026;52.600;4.694;2024-02-21T01:54:14;30.83;;;4.55;;
62724;SDS011;49026;52.600;4.694;2024-02-21T01:56:42;20.27;;;3.47;;
62724;SDS011;49026;52.600;4.694;2024-02-21T01:59:08;32.70;;;5.00;;
62724;SDS011;49026;52.600;4.694;2024-02-21T02:01:35;20.92;;;3.72;;
62724;SDS011;49026;52.600;4.694;2024-02-21T02:04:03;29.98;;;4.30;;
62724;SDS011;49026;52.600;4.694;2024-02-21T02:06:30;18.25;;;3.38;;
62724;SDS011;49026;52.600;4.694;2024-02-21T02:08:56;25.63;;;4.00;;
62724;SDS011;49026;52.600;4.694;2024-02-21T02:11:21;21.70;;;3.78;;
62724;SDS011;49026;52.600;4.694;2024-02-21T02:13:47;24.90;;;3.90;;
62724;SDS011;49026;52.600;4.694;2024-02-21T02:16:12;29.90;;;4.50;;
62724;SDS011;49026;52.600;4.694;2024-02-21T02:18:37;30.00;;;4.35;;
62724;SDS011;49026;52.600;4.694;2024-02-21T02:21:08;23.92;;;4.75;;
62724;SDS011;49026;52.600;4.694;2024-02-21T02:23:38;38.45;;;4.82;;
62724;SDS011;49026;52.600;4.694;2024-02-21T02:26:04;35.63;;;5.65;;
62724;SDS011;49026;52.600;4.694;2024-02-21T02:28:30;27.40;;;3.88;;
62724;SDS011;49026;52.600;4.694;2024-02-21T02:30:57;26.23;;;3.45;;
62724;SDS011;49026;52.600;4.694;2024-02-21T02:33:23;22.88;;;3.28;;
62724;SDS011;49026;52.600;4.694;2024-02-21T02:35:48;30.75;;;4.28;;
62724;SDS011;49026;52.600;4.694;2024-02-21T02:38:16;28.23;;;4.47;;
62724;SDS011;49026;52.600;4.694;2024-02-21T02:40:44;33.63;;;4.68;;
62724;SDS011;49026;52.600;4.694;2024-02-21T02:43:12;40.30;;;6.22;;
62724;SDS011;49026;52.600;4.694;2024-02-21T02:45:40;38.15;;;6.30;;
62724;SDS011;49026;52.600;4.694;2024-02-21T02:48:05;46.55;;;5.13;;
62724;SDS011;49026;52.600;4.694;2024-02-21T02:50:31;52.53;;;5.70;;
62724;SDS011;49026;52.600;4.694;2024-02-21T02:52:58;52.70;;;6.13;;
62724;SDS011;49026;52.600;4.694;2024-02-21T02:55:28;37.47;;;4.93;;
62724;SDS011;49026;52.600;4.694;2024-02-21T02:57:54;37.28;;;4.65;;
62724;SDS011;49026;52.600;4.694;2024-02-21T03:00:19;42.40;;;4.47;;
62724;SDS011;49026;52.600;4.694;2024-02-21T03:02:48;35.00;;;7.35;;
62724;SDS011;49026;52.600;4.694;2024-02-21T03:05:15;30.77;;;5.32;;
62724;SDS011;49026;52.600;4.694;2024-02-21T03:07:42;49.80;;;6.78;;
62724;SDS011;49026;52.600;4.694;2024-02-21T03:10:08;26.58;;;4.10;;
62724;SDS011;49026;52.600;4.694;2024-02-21T03:12:37;47.58;;;6.10;;
62724;SDS011;49026;52.600;4.694;2024-02-21T03:15:03;46.58;;;4.80;;
62724;SDS011;49026;52.600;4.694;2024-02-21T03:17:32;28.15;;;4.93;;
62724;SDS011;49026;52.600;4.694;2024-02-21T03:19:59;34.28;;;5.18;;
62724;SDS011;49026;52.600;4.694;2024-02-21T03:22:25;34.55;;;5.63;;
62724;SDS011;49026;52.600;4.694;2024-02-21T03:24:52;31.70;;;4.20;;
62724;SDS011;49026;52.600;4.694;2024-02-21T03:27:18;46.08;;;6.07;;
62724;SDS011;49026;52.600;4.694;2024-02-21T03:29:43;44.40;;;5.22;;
62724;SDS011;49026;52.600;4.694;2024-02-21T03:32:08;38.03;;;6.15;;
62724;SDS011;49026;52.600;4.694;2024-02-21T03:34:37;33.35;;;4.57;;
62724;SDS011;49026;52.600;4.694;2024-02-21T03:37:02;29.73;;;3.90;;
62724;SDS011;49026;52.600;4.694;2024-02-21T03:39:30;38.22;;;4.80;;
62724;SDS011;49026;52.600;4.694;2024-02-21T03:41:58;42.35;;;3.92;;
62724;SDS011;49026;52.600;4.694;2024-02-21T03:44:29;39.38;;;4.88;;
62724;SDS011;49026;52.600;4.694;2024-02-21T03:46:58;34.88;;;4.25;;
62724;SDS011;49026;52.600;4.694;2024-02-21T03:49:26;31.80;;;5.05;;
62724;SDS011;49026;52.600;4.694;2024-02-21T03:51:51;43.50;;;4.85;;
62724;SDS011;49026;52.600;4.694;2024-02-21T03:54:19;43.75;;;5.10;;
62724;SDS011;49026;52.600;4.694;2024-02-21T03:56:44;43.85;;;5.63;;
62724;SDS011;49026;52.600;4.694;2024-02-21T03:59:12;35.42;;;4.93;;
62724;SDS011;49026;52.600;4.694;2024-02-21T04:01:37;32.00;;;4.43;;
62724;SDS011;49026;52.600;4.694;2024-02-21T04:04:05;44.13;;;5.82;;
62724;SDS011;49026;52.600;4.694;2024-02-21T04:06:30;45.40;;;5.30;;
62724;SDS011;49026;52.600;4.694;2024-02-21T04:08:56;32.20;;;5.03;;
62724;SDS011;49026;52.600;4.694;2024-02-21T04:11:22;46.50;;;5.38;;
62724;SDS011;49026;52.600;4.694;2024-02-21T04:13:49;46.50;;;5.22;;
62724;SDS011;49026;52.600;4.694;2024-02-21T04:16:16;50.88;;;6.22;;
62724;SDS011;49026;52.600;4.694;2024-02-21T04:18:42;40.38;;;5.97;;
62724;SDS011;49026;52.600;4.694;2024-02-21T04:21:10;25.40;;;4.00;;
62724;SDS011;49026;52.600;4.694;2024-02-21T04:23:41;42.30;;;5.15;;
62724;SDS011;49026;52.600;4.694;2024-02-21T04:26:09;38.28;;;5.43;;
62724;SDS011;49026;52.600;4.694;2024-02-21T04:28:34;31.75;;;3.78;;
62724;SDS011;49026;52.600;4.694;2024-02-21T04:30:59;23.85;;;4.05;;
62724;SDS011;49026;52.600;4.694;2024-02-21T04:33:27;37.78;;;4.93;;
62724;SDS011;49026;52.600;4.694;2024-02-21T04:35:52;35.92;;;4.28;;
62724;SDS011;49026;52.600;4.694;2024-02-21T04:38:20;34.47;;;4.93;;
62724;SDS011;49026;52.600;4.694;2024-02-21T04:40:45;37.10;;;5.05;;
62724;SDS011;49026;52.600;4.694;2024-02-21T04:43:11;38.70;;;4.95;;
62724;SDS011;49026;52.600;4.694;2024-02-21T04:45:38;37.72;;;5.18;;
62724;SDS011;49026;52.600;4.694;2024-02-21T04:48:03;30.70;;;4.55;;
62724;SDS011;49026;52.600;4.694;2024-02-21T04:50:29;32.58;;;4.00;;
62724;SDS011;49026;52.600;4.694;2024-02-21T04:52:54;32.88;;;5.03;;
62724;SDS011;49026;52.600;4.694;2024-02-21T04:55:19;23.30;;;3.92;;
62724;SDS011;49026;52.600;4.694;2024-02-21T04:57:50;40.05;;;6.78;;
62724;SDS011;49026;52.600;4.694;2024-02-21T05:00:15;32.97;;;4.47;;
62724;SDS011;49026;52.600;4.694;2024-02-21T05:02:41;26.60;;;4.80;;
62724;SDS011;49026;52.600;4.694;2024-02-21T05:05:06;42.92;;;4.97;;
62724;SDS011;49026;52.600;4.694;2024-02-21T05:07:31;22.35;;;3.80;;
62724;SDS011;49026;52.600;4.694;2024-02-21T05:09:59;27.83;;;4.68;;
62724;SDS011;49026;52.600;4.694;2024-02-21T05:12:24;60.10;;;7.55;;
62724;SDS011;49026;52.600;4.694;2024-02-21T05:14:49;36.53;;;4.88;;
62724;SDS011;49026;52.600;4.694;2024-02-21T05:17:15;117.20;;;9.40;;
62724;SDS011;49026;52.600;4.694;2024-02-21T05:19:40;46.33;;;6.07;;
62724;SDS011;49026;52.600;4.694;2024-02-21T05:22:05;34.35;;;4.82;;
62724;SDS011;49026;52.600;4.694;2024-02-21T05:24:31;37.10;;;4.35;;
62724;SDS011;49026;52.600;4.694;2024-02-21T05:26:58;29.92;;;5.05;;
62724;SDS011;49026;52.600;4.694;2024-02-21T05:29:26;26.05;;;4.38;;
62724;SDS011;49026;52.600;4.694;2024-02-21T05:34:16;27.90;;;4.97;;
62724;SDS011;49026;52.600;4.694;2024-02-21T05:36:44;36.30;;;5.78;;
62724;SDS011;49026;52.600;4.694;2024-02-21T05:39:10;50.15;;;6.32;;
62724;SDS011;49026;52.600;4.694;2024-02-21T05:41:36;63.00;;;6.50;;
62724;SDS011;49026;52.600;4.694;2024-02-21T05:44:01;47.33;;;5.13;;
62724;SDS011;49026;52.600;4.694;2024-02-21T05:46:27;37.00;;;4.70;;
62724;SDS011;49026;52.600;4.694;2024-02-21T05:48:54;38.88;;;5.13;;
62724;SDS011;49026;52.600;4.694;2024-02-21T05:51:19;27.67;;;5.47;;
62724;SDS011;49026;52.600;4.694;2024-02-21T05:53:45;27.33;;;4.63;;
62724;SDS011;49026;52.600;4.694;2024-02-21T05:56:12;24.95;;;5.70;;
62724;SDS011;49026;52.600;4.694;2024-02-21T05:58:39;27.77;;;5.50;;
62724;SDS011;49026;52.600;4.694;2024-02-21T06:01:04;34.50;;;6.13;;
62724;SDS011;49026;52.600;4.694;2024-02-21T06:03:31;34.30;;;6.80;;
62724;SDS011;49026;52.600;4.694;2024-02-21T06:05:57;19.40;;;5.78;;
62724;SDS011;49026;52.600;4.694;2024-02-21T06:08:23;31.77;;;5.25;;
62724;SDS011;49026;52.600;4.694;2024-02-21T06:10:50;28.73;;;6.65;;
62724;SDS011;49026;52.600;4.694;2024-02-21T06:13:25;27.75;;;5.70;;
62724;SDS011;49026;52.600;4.694;2024-02-21T06:15:51;21.83;;;6.00;;
62724;SDS011;49026;52.600;4.694;2024-02-21T06:18:19;67.70;;;7.82;;
62724;SDS011;49026;52.600;4.694;2024-02-21T06:20:48;25.52;;;7.18;;
62724;SDS011;49026;52.600;4.694;2024-02-21T06:23:14;20.67;;;5.85;;
62724;SDS011;49026;52.600;4.694;2024-02-21T06:25:45;27.00;;;6.93;;
62724;SDS011;49026;52.600;4.694;2024-02-21T06:28:12;19.90;;;6.00;;
62724;SDS011;49026;52.600;4.694;2024-02-21T06:30:40;26.30;;;7.03;;
62724;SDS011;49026;52.600;4.694;2024-02-21T06:33:05;32.10;;;8.90;;
62724;SDS011;49026;52.600;4.694;2024-02-21T06:35:30;26.08;;;7.22;;
62724;SDS011;49026;52.600;4.694;2024-02-21T06:37:56;16.92;;;6.32;;
62724;SDS011;49026;52.600;4.694;2024-02-21T06:40:22;28.65;;;5.82;;
62724;SDS011;49026;52.600;4.694;2024-02-21T06:42:48;24.58;;;7.30;;
62724;SDS011;49026;52.600;4.694;2024-02-21T06:45:16;22.38;;;5.75;;
62724;SDS011;49026;52.600;4.694;2024-02-21T06:47:42;16.77;;;6.13;;
62724;SDS011;49026;52.600;4.694;2024-02-21T06:50:10;20.25;;;5.30;;
62724;SDS011;49026;52.600;4.694;2024-02-21T06:52:38;35.38;;;6.13;;
62724;SDS011;49026;52.600;4.694;2024-02-21T06:55:03;33.95;;;6.85;;
62724;SDS011;49026;52.600;4.694;2024-02-21T06:57:29;23.05;;;6.13;;
62724;SDS011;49026;52.600;4.694;2024-02-21T06:59:54;30.27;;;6.22;;
62724;SDS011;49026;52.600;4.694;2024-02-21T07:02:22;29.02;;;6.93;;
62724;SDS011;49026;52.600;4.694;2024-02-21T07:04:52;20.70;;;5.22;;
62724;SDS011;49026;52.600;4.694;2024-02-21T07:07:17;31.15;;;7.78;;
62724;SDS011;49026;52.600;4.694;2024-02-21T07:09:42;24.08;;;7.10;;
62724;SDS011;49026;52.600;4.694;2024-02-21T07:12:07;19.60;;;6.22;;
62724;SDS011;49026;52.600;4.694;2024-02-21T07:14:35;24.42;;;7.40;;
62724;SDS011;49026;52.600;4.694;2024-02-21T07:17:01;21.65;;;7.05;;
62724;SDS011;49026;52.600;4.694;2024-02-21T07:19:27;30.08;;;8.98;;
62724;SDS011;49026;52.600;4.694;2024-02-21T07:21:52;14.45;;;6.82;;
62724;SDS011;49026;52.600;4.694;2024-02-21T07:24:17;20.83;;;7.30;;
62724;SDS011;49026;52.600;4.694;2024-02-21T07:26:43;16.50;;;6.07;;
62724;SDS011;49026;52.600;4.694;2024-02-21T07:29:09;21.50;;;8.50;;
62724;SDS011;49026;52.600;4.694;2024-02-21T07:31:41;21.77;;;7.32;;
62724;SDS011;49026;52.600;4.694;2024-02-21T07:34:06;24.25;;;6.75;;
62724;SDS011;49026;52.600;4.694;2024-02-21T07:36:32;21.10;;;7.60;;
62724;SDS011;49026;52.600;4.694;2024-02-21T07:38:57;20.27;;;8.27;;
62724;SDS011;49026;52.600;4.694;2024-02-21T07:41:23;23.33;;;8.38;;
62724;SDS011;49026;52.600;4.694;2024-02-21T07:43:48;26.88;;;7.40;;
62724;SDS011;49026;52.600;4.694;2024-02-21T07:46:13;20.15;;;7.70;;
62724;SDS011;49026;52.600;4.694;2024-02-21T07:48:41;17.67;;;6.50;;
62724;SDS011;49026;52.600;4.694;2024-02-21T07:51:06;18.73;;;7.88;;
62724;SDS011;49026;52.600;4.694;2024-02-21T07:53:31;14.55;;;6.13;;
62724;SDS011;49026;52.600;4.694;2024-02-21T07:55:59;16.80;;;7.50;;
62724;SDS011;49026;52.600;4.694;2024-02-21T07:58:24;16.55;;;6.75;;
62724;SDS011;49026;52.600;4.694;2024-02-21T08:00:52;16.77;;;7.85;;
62724;SDS011;49026;52.600;4.694;2024-02-21T08:03:17;18.55;;;7.35;;
62724;SDS011;49026;52.600;4.694;2024-02-21T08:05:43;16.75;;;6.75;;
62724;SDS011;49026;52.600;4.694;2024-02-21T08:08:09;20.25;;;7.57;;
62724;SDS011;49026;52.600;4.694;2024-02-21T08:10:34;22.90;;;8.95;;
62724;SDS011;49026;52.600;4.694;2024-02-21T08:13:02;17.00;;;7.95;;
62724;SDS011;49026;52.600;4.694;2024-02-21T08:15:34;25.80;;;8.20;;
62724;SDS011;49026;52.600;4.694;2024-02-21T08:18:00;18.33;;;7.82;;
62724;SDS011;49026;52.600;4.694;2024-02-21T08:20:26;15.25;;;7.38;;
62724;SDS011;49026;52.600;4.694;2024-02-21T08:22:52;19.45;;;7.85;;
62724;SDS011;49026;52.600;4.694;2024-02-21T08:25:20;16.55;;;8.55;;
62724;SDS011;49026;52.600;4.694;2024-02-21T08:27:45;16.00;;;9.10;;
62724;SDS011;49026;52.600;4.694;2024-02-21T08:30:10;19.40;;;8.85;;
62724;SDS011;49026;52.600;4.694;2024-02-21T08:32:36;21.50;;;8.52;;
62724;SDS011;49026;52.600;4.694;2024-02-21T08:35:02;37.00;;;10.13;;
62724;SDS011;49026;52.600;4.694;2024-02-21T08:37:32;16.45;;;8.27;;
62724;SDS011;49026;52.600;4.694;2024-02-21T08:39:57;18.38;;;8.60;;
62724;SDS011;49026;52.600;4.694;2024-02-21T08:42:23;20.05;;;9.85;;
62724;SDS011;49026;52.600;4.694;2024-02-21T08:44:48;15.35;;;8.18;;
62724;SDS011;49026;52.600;4.694;2024-02-21T08:47:16;27.92;;;11.60;;
62724;SDS011;49026;52.600;4.694;2024-02-21T08:49:41;21.42;;;11.55;;
62724;SDS011;49026;52.600;4.694;2024-02-21T08:52:09;22.70;;;11.13;;
62724;SDS011;49026;52.600;4.694;2024-02-21T08:54:36;24.05;;;9.95;;
62724;SDS011;49026;52.600;4.694;2024-02-21T08:57:02;21.20;;;12.75;;
62724;SDS011;49026;52.600;4.694;2024-02-21T08:59:28;29.38;;;13.05;;
62724;SDS011;49026;52.600;4.694;2024-02-21T09:01:53;23.00;;;12.82;;
62724;SDS011;49026;52.600;4.694;2024-02-21T09:04:18;20.10;;;12.65;;
62724;SDS011;49026;52.600;4.694;2024-02-21T09:06:44;20.90;;;12.02;;
62724;SDS011;49026;52.600;4.694;2024-02-21T09:09:11;17.08;;;11.75;;
62724;SDS011;49026;52.600;4.694;2024-02-21T09:11:36;18.73;;;11.18;;
62724;SDS011;49026;52.600;4.694;2024-02-21T09:14:04;19.92;;;11.75;;
62724;SDS011;49026;52.600;4.694;2024-02-21T09:16:31;20.85;;;10.60;;
62724;SDS011;49026;52.600;4.694;2024-02-21T09:18:57;20.15;;;11.00;;
62724;SDS011;49026;52.600;4.694;2024-02-21T09:21:24;17.33;;;10.98;;
62724;SDS011;49026;52.600;4.694;2024-02-21T09:23:51;20.35;;;10.35;;
62724;SDS011;49026;52.600;4.694;2024-02-21T09:26:17;13.50;;;7.05;;
62724;SDS011;49026;52.600;4.694;2024-02-21T09:28:43;13.13;;;8.63;;
62724;SDS011;49026;52.600;4.694;2024-02-21T09:31:11;15.30;;;9.13;;
62724;SDS011;49026;52.600;4.694;2024-02-21T09:33:36;13.60;;;9.40;;
62724;SDS011;49026;52.600;4.694;2024-02-21T09:36:07;17.08;;;9.98;;
62724;SDS011;49026;52.600;4.694;2024-02-21T09:38:35;18.60;;;10.00;;
62724;SDS011;49026;52.600;4.694;2024-02-21T09:41:08;14.02;;;8.75;;
62724;SDS011;49026;52.600;4.694;2024-02-21T09:43:40;15.05;;;8.23;;
62724;SDS011;49026;52.600;4.694;2024-02-21T09:46:06;15.30;;;8.27;;
62724;SDS011;49026;52.600;4.694;2024-02-21T09:51:34;17.92;;;9.35;;
62724;SDS011;49026;52.600;4.694;2024-02-21T09:54:00;12.07;;;6.95;;
62724;SDS011;49026;52.600;4.694;2024-02-21T09:56:26;18.02;;;10.30;;
62724;SDS011;49026;52.600;4.694;2024-02-21T09:58:51;18.50;;;10.05;;
62724;SDS011;49026;52.600;4.694;2024-02-21T10:01:16;21.48;;;10.82;;
62724;SDS011;49026;52.600;4.694;2024-02-21T10:03:41;27.20;;;11.45;;
62724;SDS011;49026;52.600;4.694;2024-02-21T10:06:08;20.30;;;11.27;;
62724;SDS011;49026;52.600;4.694;2024-02-21T10:08:37;22.75;;;11.77;;
62724;SDS011;49026;52.600;4.694;2024-02-21T10:11:02;19.33;;;12.15;;
62724;SDS011;49026;52.600;4.694;2024-02-21T10:13:28;17.33;;;11.55;;
62724;SDS011;49026;52.600;4.694;2024-02-21T10:16:01;20.48;;;12.98;;
62724;SDS011;49026;52.600;4.694;2024-02-21T10:18:30;23.25;;;13.38;;
62724;SDS011;49026;52.600;4.694;2024-02-21T10:21:05;18.70;;;11.73;;
62724;SDS011;49026;52.600;4.694;2024-02-21T10:26:31;24.35;;;13.35;;
62724;SDS011;49026;52.600;4.694;2024-02-21T10:28:57;27.10;;;15.77;;
62724;SDS011;49026;52.600;4.694;2024-02-21T10:31:26;23.67;;;15.40;;
62724;SDS011;49026;52.600;4.694;2024-02-21T10:33:58;22.65;;;12.77;;
62724;SDS011;49026;52.600;4.694;2024-02-21T10:36:27;21.33;;;13.63;;
62724;SDS011;49026;52.600;4.694;2024-02-21T10:38:53;22.65;;;13.68;;
62724;SDS011;49026;52.600;4.694;2024-02-21T10:41:21;20.15;;;12.50;;
62724;SDS011;49026;52.600;4.694;2024-02-21T10:43:52;24.13;;;12.15;;
62724;SDS011;49026;52.600;4.694;2024-02-21T10:46:20;19.30;;;11.30;;
62724;SDS011;49026;52.600;4.694;2024-02-21T10:48:46;18.42;;;11.80;;
62724;SDS011;49026;52.600;4.694;2024-02-21T10:51:19;15.65;;;10.30;;
62724;SDS011;49026;52.600;4.694;2024-02-21T10:54:34;18.70;;;9.90;;
62724;SDS011;49026;52.600;4.694;2024-02-21T10:56:36;18.30;;;12.13;;
62724;SDS011;49026;52.600;4.694;2024-02-21T10:59:05;16.17;;;11.10;;
62724;SDS011;49026;52.600;4.694;2024-02-21T11:01:31;16.13;;;10.60;;
62724;SDS011;49026;52.600;4.694;2024-02-21T11:04:07;19.38;;;12.07;;
62724;SDS011;49026;52.600;4.694;2024-02-21T11:06:34;17.17;;;11.25;;
62724;SDS011;49026;52.600;4.694;2024-02-21T11:09:05;14.70;;;10.27;;
62724;SDS011;49026;52.600;4.694;2024-02-21T11:11:34;17.42;;;12.57;;
62724;SDS011;49026;52.600;4.694;2024-02-21T11:14:10;13.20;;;10.20;;
62724;SDS011;49026;52.600;4.694;2024-02-21T11:16:42;19.02;;;11.35;;
62724;SDS011;49026;52.600;4.694;2024-02-21T11:19:09;20.25;;;10.95;;
62724;SDS011;49026;52.600;4.694;2024-02-21T11:21:43;24.60;;;10.43;;
62724;SDS011;49026;52.600;4.694;2024-02-21T11:24:09;19.70;;;10.80;;
62724;SDS011;49026;52.600;4.694;2024-02-21T11:26:36;16.63;;;10.02;;
62724;SDS011;49026;52.600;4.694;2024-02-21T11:29:02;15.07;;;9.75;;
62724;SDS011;49026;52.600;4.694;2024-02-21T11:31:38;18.95;;;10.68;;
62724;SDS011;49026;52.600;4.694;2024-02-21T11:34:11;17.05;;;10.95;;
62724;SDS011;49026;52.600;4.694;2024-02-21T11:36:47;17.98;;;12.13;;
62724;SDS011;49026;52.600;4.694;2024-02-21T11:39:18;18.10;;;11.90;;
62724;SDS011;49026;52.600;4.694;2024-02-21T11:44:45;17.88;;;13.30;;
62724;SDS011;49026;52.600;4.694;2024-02-21T11:47:13;18.67;;;11.57;;
62724;SDS011;49026;52.600;4.694;2024-02-21T11:49:44;17.05;;;11.43;;
62724;SDS011;49026;52.600;4.694;2024-02-21T11:52:11;15.55;;;10.10;;
62724;SDS011;49026;52.600;4.694;2024-02-21T11:54:41;15.73;;;11.35;;
62724;SDS011;49026;52.600;4.694;2024-02-21T11:57:07;16.08;;;10.77;;
62724;SDS011;49026;52.600;4.694;2024-02-21T11:59:34;15.65;;;10.88;;
62724;SDS011;49026;52.600;4.694;2024-02-21T12:02:00;15.90;;;11.50;;
62724;SDS011;49026;52.600;4.694;2024-02-21T12:04:28;18.15;;;11.35;;
62724;SDS011;49026;52.600;4.694;2024-02-21T12:06:53;15.70;;;11.02;;
62724;SDS011;49026;52.600;4.694;2024-02-21T12:09:19;17.77;;;11.15;;
62724;SDS011;49026;52.600;4.694;2024-02-21T12:11:44;14.55;;;10.23;;
62724;SDS011;49026;52.600;4.694;2024-02-21T12:14:15;17.55;;;10.10;;
62724;SDS011;49026;52.600;4.694;2024-02-21T12:16:41;15.57;;;10.30;;
62724;SDS011;49026;52.600;4.694;2024-02-21T12:19:07;17.98;;;10.30;;
62724;SDS011;49026;52.600;4.694;2024-02-21T12:21:35;15.32;;;9.63;;
62724;SDS011;49026;52.600;4.694;2024-02-21T12:26:42;13.07;;;9.20;;
62724;SDS011;49026;52.600;4.694;2024-02-21T12:29:08;14.65;;;9.65;;
62724;SDS011;49026;52.600;4.694;2024-02-21T12:31:37;13.43;;;9.35;;
62724;SDS011;49026;52.600;4.694;2024-02-21T12:34:05;15.38;;;9.80;;
62724;SDS011;49026;52.600;4.694;2024-02-21T12:36:31;14.38;;;9.23;;
62724;SDS011;49026;52.600;4.694;2024-02-21T12:39:00;11.80;;;8.23;;
62724;SDS011;49026;52.600;4.694;2024-02-21T12:41:30;13.45;;;8.88;;
62724;SDS011;49026;52.600;4.694;2024-02-21T12:43:57;15.00;;;7.85;;
62724;SDS011;49026;52.600;4.694;2024-02-21T12:46:26;13.10;;;8.30;;
62724;SDS011;49026;52.600;4.694;2024-02-21T12:48:52;13.43;;;8.15;;
62724;SDS011;49026;52.600;4.694;2024-02-21T12:51:17;12.68;;;7.40;;
62724;SDS011;49026;52.600;4.694;2024-02-21T12:53:46;13.25;;;7.55;;
62724;SDS011;49026;52.600;4.694;2024-02-21T12:56:15;11.00;;;7.47;;
62724;SDS011;49026;52.600;4.694;2024-02-21T12:58:41;13.50;;;7.75;;
62724;SDS011;49026;52.600;4.694;2024-02-21T13:01:06;10.05;;;7.63;;
62724;SDS011;49026;52.600;4.694;2024-02-21T13:03:31;13.23;;;8.07;;
62724;SDS011;49026;52.600;4.694;2024-02-21T13:05:59;12.45;;;7.18;;
62724;SDS011;49026;52.600;4.694;2024-02-21T13:08:25;10.40;;;6.82;;
62724;SDS011;49026;52.600;4.694;2024-02-21T13:10:50;11.00;;;6.88;;
62724;SDS011;49026;52.600;4.694;2024-02-21T13:13:15;11.52;;;6.43;;
62724;SDS011;49026;52.600;4.694;2024-02-21T13:15:41;7.95;;;5.32;;
62724;SDS011;49026;52.600;4.694;2024-02-21T13:18:08;11.73;;;6.43;;
62724;SDS011;49026;52.600;4.694;2024-02-21T13:20:34;8.65;;;6.13;;
62724;SDS011;49026;52.600;4.694;2024-02-21T13:22:59;9.63;;;5.95;;
62724;SDS011;49026;52.600;4.694;2024-02-21T13:25:24;7.00;;;5.07;;
62724;SDS011;49026;52.600;4.694;2024-02-21T13:27:50;9.90;;;5.63;;
62724;SDS011;49026;52.600;4.694;2024-02-21T13:30:15;9.80;;;5.05;;
62724;SDS011;49026;52.600;4.694;2024-02-21T13:32:41;10.43;;;5.28;;
62724;SDS011;49026;52.600;4.694;2024-02-21T13:35:07;8.48;;;4.70;;
62724;SDS011;49026;52.600;4.694;2024-02-21T13:37:36;7.50;;;4.43;;
62724;SDS011;49026;52.600;4.694;2024-02-21T13:40:02;7.75;;;4.57;;
62724;SDS011;49026;52.600;4.694;2024-02-21T13:42:29;6.68;;;4.65;;
62724;SDS011;49026;52.600;4.694;2024-02-21T13:44:54;10.75;;;4.57;;
62724;SDS011;49026;52.600;4.694;2024-02-21T13:47:20;6.50;;;4.10;;
62724;SDS011;49026;52.600;4.694;2024-02-21T13:49:46;8.80;;;5.38;;
62724;SDS011;49026;52.600;4.694;2024-02-21T13:52:12;10.18;;;4.88;;
62724;SDS011;49026;52.600;4.694;2024-02-21T13:54:37;7.80;;;4.53;;
62724;SDS011;49026;52.600;4.694;2024-02-21T13:57:03;9.52;;;4.93;;
62724;SDS011;49026;52.600;4.694;2024-02-21T13:59:28;7.88;;;5.05;;
62724;SDS011;49026;52.600;4.694;2024-02-21T14:01:55;9.02;;;5.40;;
62724;SDS011;49026;52.600;4.694;2024-02-21T14:04:20;8.85;;;5.30;;
62724;SDS011;49026;52.600;4.694;2024-02-21T14:06:46;8.38;;;5.10;;
62724;SDS011;49026;52.600;4.694;2024-02-21T14:09:12;13.32;;;4.68;;
62724;SDS011;49026;52.600;4.694;2024-02-21T14:11:40;10.05;;;6.00;;
62724;SDS011;49026;52.600;4.694;2024-02-21T14:14:09;11.07;;;4.95;;
62724;SDS011;49026;52.600;4.694;2024-02-21T14:16:34;8.45;;;5.07;;
62724;SDS011;49026;52.600;4.694;2024-02-21T14:18:59;9.80;;;5.05;;
62724;SDS011;49026;52.600;4.694;2024-02-21T14:21:24;13.07;;;8.43;;
62724;SDS011;49026;52.600;4.694;2024-02-21T14:23:53;11.63;;;7.85;;
62724;SDS011;49026;52.600;4.694;2024-02-21T14:26:18;16.20;;;9.27;;
62724;SDS011;49026;52.600;4.694;2024-02-21T14:28:46;11.05;;;7.57;;
62724;SDS011;49026;52.600;4.694;2024-02-21T14:31:11;11.63;;;8.15;;
62724;SDS011;49026;52.600;4.694;2024-02-21T14:33:36;10.18;;;7.57;;
62724;SDS011;49026;52.600;4.694;2024-02-21T14:36:05;12.25;;;7.70;;
62724;SDS011;49026;52.600;4.694;2024-02-21T14:38:32;19.15;;;8.18;;
62724;SDS011;49026;52.600;4.694;2024-02-21T14:40:57;15.95;;;10.93;;
62724;SDS011;49026;52.600;4.694;2024-02-21T14:43:23;15.52;;;9.80;;
62724;SDS011;49026;52.600;4.694;2024-02-21T14:45:48;16.63;;;10.45;;